createdAt,value
2023-02-27T00:01:17.495Z,18.64
2023-02-27T00:03:47.357Z,18.81
2023-02-27T00:06:18.813Z,18.78
2023-02-27T00:08:47.798Z,19.01
2023-02-27T00:11:17.042Z,18.81
2023-02-27T00:13:46.194Z,18.73
2023-02-27T00:16:15.496Z,18.92
2023-02-27T00:18:44.481Z,18.89
2023-02-27T00:21:13.699Z,18.56
2023-02-27T00:23:42.653Z,18.51
2023-02-27T00:26:11.364Z,18.79
2023-02-27T00:28:40.558Z,18.67
2023-02-27T00:31:09.578Z,18.50
2023-02-27T00:33:38.652Z,18.48
2023-02-27T00:36:10.806Z,18.65
2023-02-27T00:38:39.797Z,18.75
2023-02-27T00:41:08.674Z,18.91
2023-02-27T00:43:37.693Z,18.82
2023-02-27T00:46:06.765Z,18.85
2023-02-27T00:48:35.800Z,18.89
2023-02-27T00:51:04.655Z,18.58
2023-02-27T00:53:33.726Z,18.45
2023-02-27T00:56:02.511Z,18.65
2023-02-27T00:58:31.492Z,18.42
2023-02-27T01:01:04.976Z,18.75
2023-02-27T01:03:36.324Z,18.80
2023-02-27T01:06:06.159Z,18.81
2023-02-27T01:08:38.375Z,18.97
2023-02-27T01:11:10.373Z,18.74
2023-02-27T01:13:41.425Z,18.81
2023-02-27T01:16:12.063Z,18.95
2023-02-27T01:18:41.992Z,19.01
2023-02-27T01:21:11.889Z,19.21
2023-02-27T01:23:41.743Z,19.09
2023-02-27T01:26:11.847Z,18.94
2023-02-27T01:28:41.177Z,18.81
2023-02-27T01:31:10.799Z,18.81
2023-02-27T01:33:40.959Z,18.93
2023-02-27T01:36:11.686Z,18.96
2023-02-27T01:38:41.694Z,18.99
2023-02-27T01:41:11.420Z,19.06
2023-02-27T01:44:02.886Z,19.27
2023-02-27T01:46:34.248Z,19.00
2023-02-27T01:49:29.050Z,19.19
2023-02-27T01:52:17.452Z,19.23
2023-02-27T01:54:47.439Z,19.05
2023-02-27T01:57:17.403Z,19.08
2023-02-27T01:59:48.105Z,19.10
2023-02-27T02:02:27.863Z,19.20
2023-02-27T02:04:59.091Z,19.15
2023-02-27T02:07:30.380Z,19.36
2023-02-27T02:10:03.612Z,19.28
2023-02-27T02:12:35.158Z,19.33
2023-02-27T02:15:06.133Z,19.34
2023-02-27T02:18:10.972Z,19.76
2023-02-27T02:21:17.865Z,19.74
2023-02-27T02:24:02.416Z,19.50
2023-02-27T02:26:59.252Z,19.47
2023-02-27T02:29:51.416Z,19.32
2023-02-27T02:32:39.347Z,19.65
2023-02-27T02:35:45.752Z,19.60
2023-02-27T02:38:37.566Z,19.60
2023-02-27T02:41:15.546Z,19.31
2023-02-27T02:44:19.122Z,19.65
2023-02-27T02:47:26.016Z,19.76
2023-02-27T02:50:08.790Z,19.60
2023-02-27T02:52:44.760Z,19.91
2023-02-27T02:55:30.030Z,20.01
2023-02-27T02:58:50.882Z,20.06
2023-02-27T03:01:28.780Z,20.10
2023-02-27T03:04:23.310Z,20.17
2023-02-27T03:07:01.019Z,19.90
2023-02-27T03:10:06.631Z,20.25
2023-02-27T03:12:38.563Z,20.24
2023-02-27T03:15:23.916Z,20.48
2023-02-27T03:18:05.893Z,20.48
2023-02-27T03:20:43.674Z,20.49
2023-02-27T03:23:18.816Z,20.65
2023-02-27T03:25:51.975Z,20.68
2023-02-27T03:28:30.507Z,20.98
2023-02-27T03:31:14.637Z,21.13
2023-02-27T03:34:01.655Z,21.20
2023-02-27T03:36:44.558Z,21.08
2023-02-27T03:39:49.382Z,21.00
2023-02-27T03:42:33.362Z,21.05
2023-02-27T03:45:38.839Z,21.33
2023-02-27T03:48:10.204Z,21.21
2023-02-27T03:50:40.818Z,21.31
2023-02-27T03:53:21.129Z,21.49
2023-02-27T03:55:52.936Z,21.54
2023-02-27T03:58:23.092Z,21.51
2023-02-27T04:00:53.626Z,21.57
2023-02-27T04:03:24.322Z,21.41
2023-02-27T04:05:54.506Z,21.55
2023-02-27T04:08:57.978Z,22.00
2023-02-27T04:11:33.861Z,21.98
2023-02-27T04:14:03.604Z,21.88
2023-02-27T04:16:46.965Z,22.11
2023-02-27T04:19:32.103Z,22.36
2023-02-27T04:22:10.628Z,22.42
2023-02-27T04:24:47.618Z,22.55
2023-02-27T04:27:23.443Z,22.71
2023-02-27T04:30:11.797Z,22.90
2023-02-27T04:32:51.594Z,22.94
2023-02-27T04:35:35.000Z,22.86
2023-02-27T04:38:19.697Z,22.95
2023-02-27T04:40:57.022Z,23.03
2023-02-27T04:43:29.145Z,23.09
2023-02-27T04:46:01.996Z,23.25
2023-02-27T04:48:38.877Z,23.48
2023-02-27T04:51:14.719Z,23.52
2023-02-27T04:54:18.879Z,23.57
2023-02-27T04:57:03.159Z,23.67
2023-02-27T04:59:40.421Z,23.58
2023-02-27T05:02:12.192Z,23.69
2023-02-27T05:04:44.793Z,23.95
2023-02-27T05:07:18.000Z,24.28
2023-02-27T05:10:04.851Z,24.21
2023-02-27T05:12:45.809Z,24.20
2023-02-27T05:15:17.344Z,24.23
2023-02-27T05:18:14.500Z,24.59
2023-02-27T05:20:55.334Z,24.39
2023-02-27T05:23:37.149Z,24.56
2023-02-27T05:26:38.890Z,24.95
2023-02-27T05:29:33.274Z,24.84
2023-02-27T05:32:28.122Z,24.80
2023-02-27T05:35:10.919Z,25.02
2023-02-27T05:37:54.617Z,25.14
2023-02-27T05:40:31.099Z,25.11
2023-02-27T05:43:22.557Z,25.19
2023-02-27T05:45:54.330Z,25.08
2023-02-27T05:48:28.900Z,25.36
2023-02-27T05:51:00.558Z,25.57
2023-02-27T05:53:36.006Z,25.73
2023-02-27T05:56:07.863Z,25.59
2023-02-27T05:58:51.219Z,25.92
2023-02-27T06:01:20.421Z,25.75
2023-02-27T06:03:49.137Z,25.88
2023-02-27T06:06:20.624Z,26.14
2023-02-27T06:08:49.637Z,26.16
2023-02-27T06:11:18.900Z,26.18
2023-02-27T06:13:47.878Z,26.26
2023-02-27T06:16:18.106Z,26.43
2023-02-27T06:18:47.144Z,26.55
2023-02-27T06:21:16.168Z,26.59
2023-02-27T06:23:46.169Z,26.79
2023-02-27T06:26:15.235Z,26.80
2023-02-27T06:28:44.042Z,26.74
2023-02-27T06:31:13.020Z,26.83
2023-02-27T06:33:41.996Z,26.96
2023-02-27T06:36:11.103Z,26.97
2023-02-27T06:38:40.646Z,27.08
2023-02-27T06:41:09.793Z,27.20
2023-02-27T06:43:38.518Z,27.26
2023-02-27T06:46:08.173Z,27.22
2023-02-27T06:48:37.015Z,27.33
2023-02-27T06:51:06.489Z,27.45
2023-02-27T06:53:35.917Z,27.52
2023-02-27T06:56:04.860Z,27.46
2023-02-27T06:58:33.892Z,27.54
2023-02-27T07:01:02.860Z,27.37
2023-02-27T07:03:31.917Z,27.53
2023-02-27T07:06:01.045Z,27.65
2023-02-27T07:08:30.649Z,27.72
2023-02-27T07:10:59.771Z,27.66
2023-02-27T07:13:29.010Z,27.78
2023-02-27T07:15:57.810Z,27.95
2023-02-27T07:18:26.890Z,27.87
2023-02-27T07:20:56.286Z,27.93
2023-02-27T07:23:25.429Z,27.88
2023-02-27T07:25:54.272Z,27.99
2023-02-27T07:28:23.634Z,28.20
2023-02-27T07:30:56.687Z,28.32
2023-02-27T07:33:25.943Z,28.22
2023-02-27T07:35:55.309Z,28.25
2023-02-27T07:38:25.061Z,28.22
2023-02-27T07:40:56.993Z,28.16
2023-02-27T07:43:26.542Z,28.36
2023-02-27T07:45:55.521Z,28.27
2023-02-27T07:48:24.611Z,28.36
2023-02-27T07:50:53.761Z,28.34
2023-02-27T07:53:22.537Z,28.07
2023-02-27T07:55:51.750Z,28.37
2023-02-27T07:58:20.591Z,28.37
2023-02-27T08:00:49.563Z,28.39
2023-02-27T08:03:18.555Z,28.58
2023-02-27T08:05:47.509Z,28.40
2023-02-27T08:08:16.325Z,28.67
2023-02-27T08:10:45.376Z,28.72
2023-02-27T08:13:16.737Z,28.65
2023-02-27T08:15:45.875Z,28.77
2023-02-27T08:18:14.677Z,28.44
2023-02-27T08:20:43.576Z,28.73
2023-02-27T08:23:13.072Z,28.64
2023-02-27T08:25:42.229Z,28.68
2023-02-27T08:28:10.982Z,28.90
2023-02-27T08:30:40.060Z,28.85
2023-02-27T08:33:08.841Z,28.70
2023-02-27T08:35:37.814Z,28.94
2023-02-27T08:38:06.663Z,28.96
2023-02-27T08:40:35.735Z,28.95
2023-02-27T08:43:04.438Z,28.73
2023-02-27T08:45:33.986Z,28.93
2023-02-27T08:48:02.844Z,28.96
2023-02-27T08:50:35.006Z,29.04
2023-02-27T08:53:04.642Z,28.87
2023-02-27T08:55:33.401Z,29.05
2023-02-27T08:58:04.662Z,28.99
2023-02-27T09:00:38.423Z,28.76
2023-02-27T09:03:09.304Z,28.79
2023-02-27T09:05:38.982Z,29.00
2023-02-27T09:08:08.750Z,29.04
2023-02-27T09:10:38.561Z,28.98
2023-02-27T09:13:07.446Z,29.02
2023-02-27T09:15:36.460Z,28.80
2023-02-27T09:18:07.856Z,29.02
2023-02-27T09:20:37.438Z,29.10
2023-02-27T09:23:06.269Z,28.99
2023-02-27T09:25:35.208Z,28.83
2023-02-27T09:28:03.980Z,28.91
2023-02-27T09:30:34.124Z,29.04
2023-02-27T09:33:03.016Z,29.01
2023-02-27T09:35:34.303Z,28.81
2023-02-27T09:38:03.375Z,29.10
2023-02-27T09:40:39.102Z,28.95
2023-02-27T09:43:26.190Z,29.02
2023-02-27T09:45:57.548Z,29.03
2023-02-27T09:48:32.667Z,29.10
2023-02-27T09:51:02.646Z,28.83
2023-02-27T09:53:38.440Z,28.88
2023-02-27T09:56:30.430Z,28.87
2023-02-27T09:59:05.936Z,28.91
2023-02-27T10:01:56.568Z,28.93
2023-02-27T10:04:47.164Z,29.07
2023-02-27T10:07:34.581Z,29.11
2023-02-27T10:10:09.669Z,29.08
2023-02-27T10:12:41.904Z,29.14
2023-02-27T10:15:14.306Z,29.17
2023-02-27T10:17:50.976Z,28.86
2023-02-27T10:20:32.004Z,28.99
2023-02-27T10:23:15.439Z,29.07
2023-02-27T10:25:50.967Z,29.13
2023-02-27T10:28:22.820Z,29.00
2023-02-27T10:30:56.221Z,28.99
2023-02-27T10:33:36.928Z,29.12
2023-02-27T10:36:20.527Z,29.02
2023-02-27T10:39:02.576Z,29.17
2023-02-27T10:41:32.359Z,29.03
2023-02-27T10:44:02.615Z,28.95
2023-02-27T10:46:35.977Z,28.93
2023-02-27T10:49:18.903Z,28.93
2023-02-27T10:52:05.384Z,28.75
2023-02-27T10:54:34.419Z,28.76
2023-02-27T10:57:06.344Z,28.67
2023-02-27T10:59:39.587Z,28.72
2023-02-27T11:02:17.506Z,28.66
2023-02-27T11:04:55.750Z,28.64
2023-02-27T11:07:43.230Z,28.55
2023-02-27T11:10:15.096Z,28.37
2023-02-27T11:12:59.597Z,28.34
2023-02-27T11:15:33.847Z,28.50
2023-02-27T11:18:23.048Z,28.56
2023-02-27T11:20:52.237Z,28.31
2023-02-27T11:23:26.878Z,28.31
2023-02-27T11:26:17.361Z,28.38
2023-02-27T11:28:46.489Z,28.21
2023-02-27T11:31:23.441Z,28.40
2023-02-27T11:33:58.741Z,28.38
2023-02-27T11:36:43.814Z,28.49
2023-02-27T11:39:34.640Z,28.58
2023-02-27T11:42:35.673Z,28.55
2023-02-27T11:45:09.864Z,28.40
2023-02-27T11:47:44.860Z,28.46
2023-02-27T11:50:32.549Z,28.45
2023-02-27T11:53:17.788Z,28.50
2023-02-27T11:55:49.300Z,28.26
2023-02-27T11:58:25.009Z,28.29
2023-02-27T12:01:04.052Z,28.17
2023-02-27T12:03:58.920Z,28.04
2023-02-27T12:06:43.356Z,27.88
2023-02-27T12:09:29.221Z,27.78
2023-02-27T12:11:58.271Z,27.61
2023-02-27T12:14:34.025Z,27.57
2023-02-27T12:17:20.198Z,27.55
2023-02-27T12:20:13.706Z,27.47
2023-02-27T12:22:48.054Z,27.40
2023-02-27T12:25:29.056Z,27.42
2023-02-27T12:28:04.844Z,27.36
2023-02-27T12:30:55.729Z,27.39
2023-02-27T12:33:55.737Z,27.35
2023-02-27T12:36:27.413Z,27.16
2023-02-27T12:38:56.514Z,27.21
2023-02-27T12:41:46.062Z,27.20
2023-02-27T12:44:37.976Z,27.19
2023-02-27T12:47:23.525Z,27.11
2023-02-27T12:50:21.890Z,27.12
2023-02-27T12:53:28.641Z,27.02
2023-02-27T12:56:16.190Z,26.93
2023-02-27T12:58:57.206Z,26.88
2023-02-27T13:01:47.814Z,26.80
2023-02-27T13:04:33.976Z,26.72
2023-02-27T13:07:27.987Z,26.62
2023-02-27T13:10:04.020Z,26.51
2023-02-27T13:13:09.676Z,26.50
2023-02-27T13:15:55.645Z,26.31
2023-02-27T13:18:57.729Z,26.32
2023-02-27T13:21:30.875Z,26.15
2023-02-27T13:24:06.082Z,26.28
2023-02-27T13:26:37.419Z,26.05
2023-02-27T13:29:07.289Z,26.01
2023-02-27T13:31:51.019Z,26.12
2023-02-27T13:34:59.333Z,26.09
2023-02-27T13:37:58.832Z,26.06
2023-02-27T13:40:40.082Z,25.95
2023-02-27T13:43:46.417Z,26.02
2023-02-27T13:46:26.045Z,25.91
2023-02-27T13:49:14.694Z,25.92
2023-02-27T13:51:50.691Z,25.71
2023-02-27T13:54:42.491Z,25.91
2023-02-27T13:57:24.491Z,25.82
2023-02-27T14:00:02.837Z,25.79
2023-02-27T14:02:35.262Z,25.56
2023-02-27T14:05:08.605Z,25.62
2023-02-27T14:08:02.553Z,25.70
2023-02-27T14:10:32.888Z,25.44
2023-02-27T14:13:04.639Z,25.40
2023-02-27T14:15:34.734Z,25.38
2023-02-27T14:18:17.904Z,25.40
2023-02-27T14:20:52.836Z,25.37
2023-02-27T14:23:28.939Z,25.47
2023-02-27T14:26:17.222Z,25.52
2023-02-27T14:28:57.518Z,25.42
2023-02-27T14:31:40.192Z,25.39
2023-02-27T14:34:19.142Z,25.32
2023-02-27T14:37:01.387Z,25.21
2023-02-27T14:39:32.817Z,25.04
2023-02-27T14:42:26.444Z,25.04
2023-02-27T14:44:56.484Z,24.92
2023-02-27T14:47:35.830Z,25.00
2023-02-27T14:50:07.770Z,24.93
2023-02-27T14:52:45.771Z,25.01
2023-02-27T14:55:30.668Z,24.98
2023-02-27T14:58:08.999Z,25.03
2023-02-27T15:00:44.448Z,24.92
2023-02-27T15:03:30.517Z,24.98
2023-02-27T15:06:02.850Z,24.90
2023-02-27T15:08:40.409Z,24.96
2023-02-27T15:11:15.096Z,24.80
2023-02-27T15:13:45.434Z,24.80
2023-02-27T15:16:26.438Z,24.86
2023-02-27T15:19:01.630Z,24.61
2023-02-27T15:21:34.977Z,24.58
2023-02-27T15:24:07.573Z,24.48
2023-02-27T15:26:39.610Z,24.36
2023-02-27T15:29:10.057Z,24.25
2023-02-27T15:31:40.099Z,24.26
2023-02-27T15:34:15.272Z,24.40
2023-02-27T15:36:52.258Z,24.38
2023-02-27T15:39:27.130Z,24.29
2023-02-27T15:42:04.226Z,24.25
2023-02-27T15:44:43.272Z,24.22
2023-02-27T15:47:20.142Z,24.16
2023-02-27T15:49:53.326Z,24.11
2023-02-27T15:52:27.385Z,24.09
2023-02-27T15:55:03.355Z,24.12
2023-02-27T15:57:34.111Z,23.92
2023-02-27T16:00:03.532Z,23.91
2023-02-27T16:02:47.274Z,23.92
2023-02-27T16:05:23.035Z,23.92
2023-02-27T16:07:53.832Z,23.80
2023-02-27T16:10:29.375Z,23.81
2023-02-27T16:12:58.674Z,23.62
2023-02-27T16:15:31.025Z,23.70
2023-02-27T16:18:05.415Z,23.63
2023-02-27T16:20:51.515Z,23.72
2023-02-27T16:23:24.657Z,23.48
2023-02-27T16:26:31.416Z,23.64
2023-02-27T16:29:03.476Z,23.46
2023-02-27T16:31:38.872Z,23.48
2023-02-27T16:34:28.006Z,23.48
2023-02-27T16:37:07.521Z,23.31
2023-02-27T16:39:36.646Z,23.24
2023-02-27T16:42:05.494Z,23.21
2023-02-27T16:44:36.770Z,23.20
2023-02-27T16:47:05.943Z,23.16
2023-02-27T16:49:34.788Z,23.13
2023-02-27T16:52:04.851Z,23.08
2023-02-27T16:54:33.579Z,23.10
2023-02-27T16:57:02.805Z,23.08
2023-02-27T16:59:37.718Z,23.14
2023-02-27T17:02:16.790Z,23.08
2023-02-27T17:04:48.821Z,23.02
2023-02-27T17:07:19.331Z,23.03
2023-02-27T17:09:49.140Z,23.00
2023-02-27T17:12:17.986Z,23.03
2023-02-27T17:14:47.028Z,23.06
2023-02-27T17:17:15.871Z,23.08
2023-02-27T17:19:44.881Z,23.07
2023-02-27T17:22:13.653Z,23.05
2023-02-27T17:24:42.805Z,22.98
2023-02-27T17:27:11.627Z,22.97
2023-02-27T17:29:40.969Z,22.96
2023-02-27T17:32:09.856Z,22.96
2023-02-27T17:34:38.871Z,22.95
2023-02-27T17:37:07.718Z,22.93
2023-02-27T17:39:36.866Z,22.94
2023-02-27T17:42:06.195Z,22.88
2023-02-27T17:44:35.877Z,22.79
2023-02-27T17:47:04.886Z,22.73
2023-02-27T17:49:34.072Z,22.66
2023-02-27T17:52:02.881Z,22.64
2023-02-27T17:54:31.981Z,22.59
2023-02-27T17:57:00.911Z,22.52
2023-02-27T17:59:30.052Z,22.50
2023-02-27T18:01:59.338Z,22.43
2023-02-27T18:04:28.463Z,22.37
2023-02-27T18:06:57.284Z,22.35
2023-02-27T18:09:26.821Z,22.31
2023-02-27T18:11:55.782Z,22.25
2023-02-27T18:14:25.036Z,22.21
2023-02-27T18:16:54.200Z,22.20
2023-02-27T18:19:25.976Z,22.19
2023-02-27T18:21:55.177Z,22.18
2023-02-27T18:24:23.982Z,22.21
2023-02-27T18:26:53.063Z,22.14
2023-02-27T18:29:22.370Z,22.03
2023-02-27T18:31:54.515Z,22.05
2023-02-27T18:34:24.268Z,22.15
2023-02-27T18:36:53.241Z,22.16
2023-02-27T18:39:23.813Z,22.16
2023-02-27T18:41:52.938Z,22.18
2023-02-27T18:44:21.682Z,22.19
2023-02-27T18:46:50.726Z,22.18
2023-02-27T18:49:19.671Z,22.14
2023-02-27T18:51:49.742Z,22.14
2023-02-27T18:54:18.623Z,22.11
2023-02-27T18:56:49.513Z,22.10
2023-02-27T18:59:18.972Z,22.10
2023-02-27T19:01:47.807Z,22.09
2023-02-27T19:04:16.990Z,22.03
2023-02-27T19:06:45.700Z,22.04
2023-02-27T19:09:20.400Z,22.08
2023-02-27T19:11:50.932Z,21.99
2023-02-27T19:14:19.835Z,21.96
2023-02-27T19:16:50.741Z,21.97
2023-02-27T19:19:20.636Z,22.01
2023-02-27T19:21:49.564Z,21.99
2023-02-27T19:24:18.700Z,22.03
2023-02-27T19:26:48.303Z,22.04
2023-02-27T19:29:18.026Z,22.03
2023-02-27T19:31:47.265Z,22.02
2023-02-27T19:34:16.156Z,22.04
2023-02-27T19:36:45.209Z,21.99
2023-02-27T19:39:14.010Z,21.99
2023-02-27T19:41:43.189Z,21.98
2023-02-27T19:44:12.377Z,21.83
2023-02-27T19:46:42.511Z,21.78
2023-02-27T19:49:12.272Z,21.83
2023-02-27T19:51:42.402Z,21.73
2023-02-27T19:54:16.501Z,21.83
2023-02-27T19:56:45.514Z,21.76
2023-02-27T19:59:14.378Z,21.81
2023-02-27T20:01:43.648Z,21.83
2023-02-27T20:04:13.616Z,21.87
2023-02-27T20:06:42.973Z,21.82
2023-02-27T20:09:17.721Z,21.90
2023-02-27T20:11:48.267Z,21.84
2023-02-27T20:14:18.574Z,21.69
2023-02-27T20:16:47.992Z,21.76
2023-02-27T20:19:19.579Z,21.89
2023-02-27T20:21:49.662Z,21.90
2023-02-27T20:24:19.880Z,21.98
2023-02-27T20:26:51.548Z,21.99
2023-02-27T20:29:24.063Z,22.08
2023-02-27T20:31:53.694Z,22.24
2023-02-27T20:34:27.264Z,22.00
2023-02-27T20:36:57.227Z,21.94
2023-02-27T20:39:26.915Z,21.91
2023-02-27T20:41:56.070Z,21.88
2023-02-27T20:44:25.094Z,22.04
2023-02-27T20:46:54.119Z,21.99
2023-02-27T20:49:24.157Z,21.93
2023-02-27T20:51:53.730Z,21.98
2023-02-27T20:54:22.687Z,21.95
2023-02-27T20:56:53.674Z,21.99
2023-02-27T20:59:26.030Z,21.91
2023-02-27T21:01:55.789Z,22.11
2023-02-27T21:04:43.884Z,22.26
2023-02-27T21:07:15.701Z,22.09
2023-02-27T21:09:45.334Z,21.98
2023-02-27T21:12:14.644Z,21.78
2023-02-27T21:14:44.956Z,21.90
2023-02-27T21:17:14.677Z,21.98
2023-02-27T21:19:43.550Z,21.91
2023-02-27T21:22:12.515Z,21.95
2023-02-27T21:24:41.294Z,21.91
2023-02-27T21:27:10.525Z,21.99
2023-02-27T21:29:40.281Z,21.99
2023-02-27T21:32:09.322Z,21.91
2023-02-27T21:34:38.123Z,21.91
2023-02-27T21:37:08.370Z,21.89
2023-02-27T21:39:37.539Z,21.89
2023-02-27T21:42:07.702Z,21.92
2023-02-27T21:44:36.858Z,21.83
2023-02-27T21:47:11.178Z,21.78
2023-02-27T21:49:40.791Z,21.82
2023-02-27T21:52:09.534Z,21.85
2023-02-27T21:54:39.150Z,21.85
2023-02-27T21:57:08.058Z,21.85
2023-02-27T21:59:37.122Z,21.85
2023-02-27T22:02:06.652Z,21.86
2023-02-27T22:04:35.743Z,21.79
2023-02-27T22:07:04.566Z,21.79
2023-02-27T22:09:33.530Z,21.72
2023-02-27T22:12:02.499Z,21.62
2023-02-27T22:14:31.597Z,21.57
2023-02-27T22:17:00.322Z,21.56
2023-02-27T22:19:29.427Z,21.73
2023-02-27T22:21:58.181Z,21.74
2023-02-27T22:24:27.298Z,21.86
2023-02-27T22:26:56.185Z,21.72
2023-02-27T22:29:25.227Z,21.62
2023-02-27T22:31:54.157Z,21.38
2023-02-27T22:34:23.256Z,21.51
2023-02-27T22:36:53.346Z,21.70
2023-02-27T22:39:22.482Z,21.61
2023-02-27T22:41:51.489Z,21.66
2023-02-27T22:44:20.553Z,21.80
2023-02-27T22:46:51.018Z,21.90
2023-02-27T22:49:21.421Z,21.89
2023-02-27T22:51:52.209Z,21.92
2023-02-27T22:54:23.721Z,21.94
2023-02-27T22:56:56.318Z,21.85
2023-02-27T22:59:27.546Z,21.65
2023-02-27T23:01:56.320Z,21.57
2023-02-27T23:04:25.341Z,21.74
2023-02-27T23:06:57.082Z,21.97
2023-02-27T23:09:28.083Z,21.78
2023-02-27T23:11:57.960Z,21.80
2023-02-27T23:14:26.796Z,21.84
2023-02-27T23:16:57.411Z,21.81
2023-02-27T23:19:26.483Z,21.50
2023-02-27T23:21:55.233Z,21.61
2023-02-27T23:24:24.186Z,21.68
2023-02-27T23:26:54.100Z,21.27
2023-02-27T23:29:23.143Z,21.32
2023-02-27T23:31:51.972Z,21.10
2023-02-27T23:34:21.198Z,20.74
2023-02-27T23:36:49.991Z,20.85
2023-02-27T23:39:18.947Z,20.95
2023-02-27T23:41:47.814Z,21.18
2023-02-27T23:44:35.179Z,21.33
2023-02-27T23:47:04.579Z,21.51
2023-02-27T23:49:33.285Z,21.38
2023-02-27T23:52:02.381Z,21.55
2023-02-27T23:54:31.203Z,21.72
2023-02-27T23:57:00.141Z,21.56
2023-02-27T23:59:29.656Z,21.82
